createdAt,value
2024-01-11T00:00:01.035Z,107.83
2024-01-11T00:02:28.605Z,115.07
2024-01-11T00:05:00.847Z,119.63
2024-01-11T00:07:28.097Z,123.68
2024-01-11T00:09:57.530Z,125.77
2024-01-11T00:12:29.186Z,118.07
2024-01-11T00:14:57.032Z,120.37
2024-01-11T00:17:24.253Z,120.97
2024-01-11T00:19:52.002Z,122.60
2024-01-11T00:22:19.154Z,115.10
2024-01-11T00:24:46.632Z,113.80
2024-01-11T00:27:14.609Z,111.10
2024-01-11T00:29:42.179Z,114.37
2024-01-11T00:32:09.155Z,109.60
2024-01-11T00:34:37.230Z,115.53
2024-01-11T00:37:05.947Z,112.20
2024-01-11T00:42:16.654Z,111.87
2024-01-11T00:44:46.021Z,107.10
2024-01-11T00:47:38.987Z,106.37
2024-01-11T00:50:32.835Z,102.43
2024-01-11T00:53:00.025Z,111.93
2024-01-11T00:55:28.184Z,108.73
2024-01-11T01:01:57.759Z,109.97
2024-01-11T01:10:21.432Z,112.17
2024-01-11T01:12:51.857Z,101.50
2024-01-11T01:15:29.615Z,110.80
2024-01-11T01:18:23.165Z,106.83
2024-01-11T01:20:50.364Z,112.67
2024-01-11T01:23:19.115Z,110.43
2024-01-11T01:25:46.274Z,109.00
2024-01-11T01:28:13.813Z,112.10
2024-01-11T01:31:07.245Z,109.93
2024-01-11T01:33:34.811Z,109.47
2024-01-11T01:36:02.013Z,112.63
2024-01-11T01:39:02.662Z,104.50
2024-01-11T01:41:54.584Z,97.60
2024-01-11T01:44:30.364Z,114.45
2024-01-11T01:46:59.016Z,109.77
2024-01-11T01:49:27.034Z,111.80
2024-01-11T01:54:41.897Z,120.33
2024-01-11T01:57:12.832Z,108.37
2024-01-11T01:59:47.043Z,106.50
2024-01-11T02:05:48.187Z,108.60
2024-01-11T02:08:18.743Z,97.68
2024-01-11T02:10:47.225Z,114.77
2024-01-11T02:13:39.961Z,104.53
2024-01-11T02:16:19.880Z,103.37
2024-01-11T02:19:14.878Z,113.10
2024-01-11T02:21:49.498Z,103.23
2024-01-11T02:24:16.760Z,100.73
2024-01-11T02:27:11.743Z,96.67
2024-01-11T02:30:55.501Z,97.13
2024-01-11T02:36:56.783Z,107.57
2024-01-11T02:39:26.004Z,108.77
2024-01-11T02:41:56.961Z,102.70
2024-01-11T02:44:24.554Z,105.27
2024-01-11T02:47:22.804Z,99.57
2024-01-11T02:49:51.154Z,102.57
2024-01-11T02:52:51.701Z,100.67
2024-01-11T02:55:19.204Z,103.73
2024-01-11T02:57:46.701Z,103.83
2024-01-11T03:00:42.552Z,99.40
2024-01-11T03:03:34.723Z,104.07
2024-01-11T03:06:15.540Z,91.13
2024-01-11T03:09:03.458Z,103.80
2024-01-11T03:11:30.829Z,98.57
2024-01-11T03:13:57.916Z,106.67
2024-01-11T03:16:30.407Z,115.07
2024-01-11T03:19:04.418Z,125.27
2024-01-11T03:21:32.268Z,121.17
2024-01-11T03:24:00.785Z,135.93
2024-01-11T03:26:28.209Z,137.80
2024-01-11T03:28:55.277Z,133.87
2024-01-11T03:31:22.673Z,137.07
2024-01-11T03:33:49.790Z,143.93
2024-01-11T03:36:17.669Z,155.03
2024-01-11T03:38:44.685Z,147.63
2024-01-11T03:41:12.291Z,135.63
2024-01-11T03:43:39.470Z,136.73
2024-01-11T03:46:31.713Z,135.50
2024-01-11T03:49:19.374Z,115.20
2024-01-11T03:52:11.686Z,116.90
2024-01-11T03:55:03.697Z,111.85
2024-01-11T03:57:56.509Z,106.10
2024-01-11T04:00:23.592Z,108.78
2024-01-11T04:02:50.890Z,122.37
2024-01-11T04:05:43.523Z,112.43
2024-01-11T04:11:48.613Z,106.57
2024-01-11T04:14:15.946Z,104.63
2024-01-11T04:16:46.081Z,111.43
2024-01-11T04:19:14.082Z,103.07
2024-01-11T04:21:41.223Z,99.17
2024-01-11T04:24:08.770Z,105.00
2024-01-11T04:27:25.448Z,109.30
2024-01-11T04:29:52.970Z,104.77
2024-01-11T04:32:28.691Z,105.97
2024-01-11T04:34:58.266Z,116.33
2024-01-11T04:37:25.240Z,104.00
2024-01-11T04:40:01.302Z,104.60
2024-01-11T04:42:30.126Z,104.97
2024-01-11T04:44:57.429Z,99.03
2024-01-11T04:47:24.691Z,99.13
2024-01-11T04:49:53.951Z,94.23
2024-01-11T04:52:20.949Z,95.43
2024-01-11T04:55:02.949Z,102.47
2024-01-11T04:57:33.374Z,97.77
2024-01-11T05:00:03.787Z,105.27
2024-01-11T05:02:31.946Z,99.47
2024-01-11T05:04:59.793Z,92.53
2024-01-11T05:07:31.448Z,97.53
2024-01-11T05:09:59.944Z,106.60
2024-01-11T05:12:48.457Z,92.23
2024-01-11T05:15:15.881Z,96.07
2024-01-11T05:17:46.915Z,105.63
2024-01-11T05:20:49.157Z,111.73
2024-01-11T05:23:16.414Z,107.77
2024-01-11T05:26:09.796Z,115.60
2024-01-11T05:29:53.371Z,123.50
2024-01-11T05:32:20.735Z,113.93
2024-01-11T05:35:06.758Z,130.83
2024-01-11T05:37:34.297Z,134.83
2024-01-11T05:40:01.582Z,136.13
2024-01-11T05:42:29.370Z,130.97
2024-01-11T05:45:10.457Z,126.37
2024-01-11T05:47:38.389Z,124.57
2024-01-11T05:52:49.956Z,112.33
2024-01-11T05:55:17.193Z,117.40
2024-01-11T05:57:44.448Z,116.43
2024-01-11T06:00:13.637Z,117.73
2024-01-11T06:02:49.049Z,112.30
2024-01-11T06:05:16.582Z,98.67
2024-01-11T06:11:27.937Z,107.10
2024-01-11T06:13:55.443Z,107.83
2024-01-11T06:16:26.944Z,106.73
2024-01-11T06:18:54.678Z,103.10
2024-01-11T06:21:21.692Z,105.67
2024-01-11T06:24:14.469Z,104.40
2024-01-11T06:26:48.284Z,107.57
2024-01-11T06:29:40.774Z,99.67
2024-01-11T06:32:08.730Z,101.45
2024-01-11T06:35:53.495Z,105.03
2024-01-11T06:38:20.577Z,100.73
2024-01-11T06:40:48.689Z,99.27
2024-01-11T06:43:16.388Z,100.37
2024-01-11T06:45:55.926Z,99.30
2024-01-11T06:48:23.163Z,102.03
2024-01-11T06:50:50.614Z,102.97
2024-01-11T06:53:47.768Z,98.50
2024-01-11T06:56:21.926Z,92.77
2024-01-11T06:59:22.606Z,92.97
2024-01-11T07:01:52.945Z,92.53
2024-01-11T07:04:20.668Z,90.27
2024-01-11T07:06:50.285Z,91.03
2024-01-11T07:09:18.127Z,105.00
2024-01-11T07:11:45.773Z,107.70
2024-01-11T07:14:14.729Z,110.93
2024-01-11T07:16:42.111Z,106.10
2024-01-11T07:19:09.199Z,116.27
2024-01-11T07:21:36.973Z,122.27
2024-01-11T07:24:04.969Z,115.47
2024-01-11T07:26:32.623Z,128.43
2024-01-11T07:28:59.857Z,116.77
2024-01-11T07:31:28.463Z,122.70
2024-01-11T07:34:10.143Z,121.00
2024-01-11T07:36:40.683Z,118.87
2024-01-11T07:39:10.861Z,114.27
2024-01-11T07:41:38.319Z,102.17
2024-01-11T07:44:08.120Z,114.33
2024-01-11T07:46:42.663Z,108.10
2024-01-11T07:49:21.866Z,92.03
2024-01-11T07:51:50.112Z,87.83
2024-01-11T07:54:17.291Z,92.87
2024-01-11T07:56:44.820Z,87.17
2024-01-11T07:59:15.733Z,84.43
2024-01-11T08:01:44.816Z,88.13
2024-01-11T08:04:11.950Z,88.23
2024-01-11T08:06:48.345Z,96.17
2024-01-11T08:15:35.508Z,131.57
2024-01-11T08:18:02.709Z,133.33
2024-01-11T08:20:30.156Z,128.57
2024-01-11T08:22:58.007Z,132.80
2024-01-11T08:25:36.733Z,124.60
2024-01-11T08:28:05.025Z,121.87
2024-01-11T08:30:32.403Z,110.27
2024-01-11T08:32:59.923Z,105.53
2024-01-11T08:35:29.078Z,94.77
2024-01-11T08:37:57.848Z,103.13
2024-01-11T08:40:25.543Z,104.67
2024-01-11T08:42:53.832Z,101.73
2024-01-11T08:45:24.090Z,94.37
2024-01-11T08:47:53.727Z,92.80
2024-01-11T08:50:24.272Z,97.50
2024-01-11T08:52:55.388Z,109.80
2024-01-11T08:55:23.133Z,112.43
2024-01-11T08:57:53.286Z,118.97
2024-01-11T09:00:20.668Z,123.07
2024-01-11T09:02:49.585Z,110.73
2024-01-11T09:05:17.780Z,119.43
2024-01-11T09:07:46.374Z,115.37
2024-01-11T09:10:14.399Z,110.07
2024-01-11T09:12:41.780Z,99.23
2024-01-11T09:15:09.287Z,106.70
2024-01-11T09:17:54.924Z,100.57
2024-01-11T09:20:23.266Z,76.70
2024-01-11T09:22:50.573Z,86.30
2024-01-11T09:25:17.799Z,80.13
2024-01-11T09:27:50.661Z,81.37
2024-01-11T09:30:18.233Z,78.47
2024-01-11T09:32:48.909Z,80.90
2024-01-11T09:35:16.885Z,71.83
2024-01-11T09:37:47.292Z,72.80
2024-01-11T09:40:17.068Z,74.83
2024-01-11T09:42:45.561Z,77.00
2024-01-11T09:45:19.841Z,71.07
2024-01-11T09:47:51.721Z,69.50
2024-01-11T09:50:21.928Z,61.63
2024-01-11T09:52:51.581Z,77.50
2024-01-11T09:55:19.653Z,82.50
2024-01-11T09:57:49.708Z,73.10
2024-01-11T10:00:24.687Z,73.13
2024-01-11T10:02:53.231Z,68.60
2024-01-11T10:05:20.711Z,69.50
2024-01-11T10:07:48.211Z,68.00
2024-01-11T10:10:24.367Z,59.90
2024-01-11T10:12:51.669Z,64.90
2024-01-11T10:15:26.236Z,55.60
2024-01-11T10:18:04.842Z,48.07
2024-01-11T10:20:34.368Z,46.97
2024-01-11T10:23:04.430Z,39.03
2024-01-11T10:25:31.612Z,33.67
2024-01-11T10:28:03.771Z,32.93
2024-01-11T10:30:40.837Z,22.20
2024-01-11T10:33:09.102Z,19.77
2024-01-11T10:35:37.273Z,20.80
2024-01-11T10:38:12.468Z,21.90
2024-01-11T10:41:29.214Z,18.90
2024-01-11T10:44:04.252Z,21.37
2024-01-11T10:46:35.823Z,21.52
2024-01-11T10:49:05.694Z,22.67
2024-01-11T10:51:33.923Z,25.97
2024-01-11T10:54:29.044Z,25.00
2024-01-11T10:57:01.130Z,23.57
2024-01-11T10:59:42.106Z,19.85
2024-01-11T11:02:27.511Z,21.30
2024-01-11T11:05:59.796Z,21.37
2024-01-11T11:08:28.482Z,23.93
2024-01-11T11:11:04.036Z,21.33
2024-01-11T11:14:08.926Z,18.37
2024-01-11T11:16:36.602Z,22.60
2024-01-11T11:19:04.580Z,17.53
2024-01-11T11:24:07.435Z,17.03
2024-01-11T11:27:28.778Z,22.73
2024-01-11T11:29:57.018Z,18.90
2024-01-11T11:32:40.261Z,19.27
2024-01-11T11:35:09.613Z,17.90
2024-01-11T11:40:50.078Z,20.20
2024-01-11T11:43:31.282Z,20.97
2024-01-11T11:46:08.557Z,17.45
2024-01-11T11:49:02.991Z,21.50
2024-01-11T11:51:30.896Z,20.13
2024-01-11T11:54:11.541Z,20.00
2024-01-11T11:57:07.659Z,23.30
2024-01-11T11:59:37.616Z,18.47
2024-01-11T12:02:13.034Z,20.57
2024-01-11T12:04:48.920Z,18.10
2024-01-11T12:07:17.161Z,18.33
2024-01-11T12:09:44.420Z,16.97
2024-01-11T12:12:15.837Z,17.50
2024-01-11T12:15:19.800Z,20.23
2024-01-11T12:18:42.360Z,18.23
2024-01-11T12:21:38.566Z,18.53
2024-01-11T12:24:57.440Z,15.03
2024-01-11T12:27:49.422Z,21.30
2024-01-11T12:30:33.726Z,18.88
2024-01-11T12:33:22.005Z,22.33
2024-01-11T12:35:50.060Z,19.60
2024-01-11T12:39:10.542Z,22.83
2024-01-11T12:41:44.346Z,21.97
2024-01-11T12:44:19.976Z,22.97
2024-01-11T12:46:52.033Z,22.10
2024-01-11T12:50:08.968Z,21.10
2024-01-11T12:52:36.315Z,19.30
2024-01-11T12:55:05.521Z,20.83
2024-01-11T12:58:06.875Z,20.70
2024-01-11T13:04:06.970Z,21.50
2024-01-11T13:06:35.667Z,21.27
2024-01-11T13:09:54.340Z,22.70
2024-01-11T13:13:11.660Z,21.60
2024-01-11T13:15:42.310Z,26.93
2024-01-11T13:18:36.638Z,26.23
2024-01-11T13:21:04.379Z,23.27
2024-01-11T13:23:34.960Z,21.37
2024-01-11T13:26:52.309Z,22.13
2024-01-11T13:29:19.512Z,20.67
2024-01-11T13:32:37.317Z,22.17
2024-01-11T13:35:29.404Z,21.10
2024-01-11T13:39:38.270Z,23.38
2024-01-11T13:42:14.099Z,14.63
2024-01-11T13:45:10.001Z,23.00
2024-01-11T13:47:37.970Z,28.57
2024-01-11T13:50:39.239Z,21.60
2024-01-11T13:53:57.412Z,23.33
2024-01-11T13:56:54.944Z,25.93
2024-01-11T13:59:22.551Z,24.90
2024-01-11T14:01:52.825Z,27.03
2024-01-11T14:04:46.895Z,29.00
2024-01-11T14:07:39.003Z,30.80
2024-01-11T14:10:09.282Z,30.97
2024-01-11T14:12:51.263Z,29.80
2024-01-11T14:15:43.424Z,31.57
2024-01-11T14:18:12.218Z,30.43
2024-01-11T14:22:13.329Z,31.40
2024-01-11T14:25:31.651Z,30.37
2024-01-11T14:28:00.767Z,31.80
2024-01-11T14:30:53.637Z,34.07
2024-01-11T14:33:46.121Z,29.83
2024-01-11T14:36:15.491Z,31.58
2024-01-11T14:38:43.926Z,29.50
2024-01-11T14:41:11.506Z,28.70
2024-01-11T14:43:38.497Z,26.00
2024-01-11T14:49:36.344Z,32.10
2024-01-11T14:52:04.578Z,28.03
2024-01-11T14:54:31.688Z,34.57
2024-01-11T14:56:59.573Z,25.83
2024-01-11T14:59:26.698Z,35.80
2024-01-11T15:01:54.071Z,34.10
2024-01-11T15:04:46.620Z,38.30
2024-01-11T15:07:14.240Z,40.75
2024-01-11T15:09:50.500Z,38.10
2024-01-11T15:12:23.103Z,34.73
2024-01-11T15:15:19.293Z,41.35
2024-01-11T15:17:48.065Z,41.90
2024-01-11T15:20:28.503Z,38.40
2024-01-11T15:23:29.932Z,38.63
2024-01-11T15:26:49.840Z,43.43
2024-01-11T15:32:51.727Z,41.10
2024-01-11T15:35:44.329Z,43.77
2024-01-11T15:38:14.982Z,40.58
2024-01-11T15:41:59.453Z,40.17
2024-01-11T15:44:31.488Z,41.83
2024-01-11T15:50:49.371Z,37.97
2024-01-11T15:54:34.321Z,41.57
2024-01-11T15:57:31.258Z,35.50
2024-01-11T16:03:31.132Z,41.17
2024-01-11T16:05:58.446Z,38.90
2024-01-11T16:08:51.767Z,37.57
2024-01-11T16:13:49.723Z,40.53
2024-01-11T16:16:17.745Z,41.40
2024-01-11T16:18:45.674Z,44.23
2024-01-11T16:21:12.918Z,45.92
2024-01-11T16:23:40.707Z,44.58
2024-01-11T16:26:10.690Z,45.20
2024-01-11T16:28:38.554Z,47.22
2024-01-11T16:31:06.237Z,45.38
2024-01-11T16:33:34.052Z,45.35
2024-01-11T16:36:04.217Z,47.05
2024-01-11T16:38:31.777Z,51.73
2024-01-11T16:40:59.704Z,48.40
2024-01-11T16:43:35.889Z,50.05
2024-01-11T16:46:03.545Z,50.63
2024-01-11T16:48:31.398Z,50.97
2024-01-11T16:51:04.691Z,51.67
2024-01-11T16:53:35.498Z,46.53
2024-01-11T16:56:14.950Z,50.75
2024-01-11T16:59:03.390Z,49.33
2024-01-11T17:01:31.410Z,52.67
2024-01-11T17:04:00.390Z,44.58
2024-01-11T17:06:27.856Z,41.75
2024-01-11T17:08:55.350Z,45.13
2024-01-11T17:11:26.492Z,44.10
2024-01-11T17:13:57.365Z,51.35
2024-01-11T17:16:52.297Z,47.72
2024-01-11T17:19:22.828Z,53.25
2024-01-11T17:21:53.787Z,48.87
2024-01-11T17:24:21.818Z,51.37
2024-01-11T17:26:51.273Z,55.65
2024-01-11T17:29:18.763Z,46.60
2024-01-11T17:31:47.074Z,55.90
2024-01-11T17:34:40.141Z,50.47
2024-01-11T17:37:11.083Z,51.63
2024-01-11T17:39:55.318Z,56.30
2024-01-11T17:42:47.725Z,57.10
2024-01-11T17:45:18.927Z,56.58
2024-01-11T17:47:58.544Z,55.60
2024-01-11T17:50:35.252Z,54.20
2024-01-11T17:53:53.720Z,64.83
2024-01-11T17:56:46.821Z,55.03
2024-01-11T17:59:30.710Z,67.07
2024-01-11T18:02:24.103Z,62.83
2024-01-11T18:04:51.390Z,45.27
2024-01-11T18:07:20.190Z,54.55
2024-01-11T18:09:47.430Z,53.67
2024-01-11T18:12:17.079Z,52.83
2024-01-11T18:14:58.577Z,52.55
2024-01-11T18:17:26.638Z,54.70
2024-01-11T18:19:53.895Z,46.37
2024-01-11T18:22:21.441Z,48.63
2024-01-11T18:24:48.832Z,42.43
2024-01-11T18:27:17.227Z,50.30
2024-01-11T18:29:44.798Z,50.90
2024-01-11T18:32:13.244Z,50.37
2024-01-11T18:34:41.499Z,52.50
2024-01-11T18:37:21.061Z,56.73
2024-01-11T18:40:04.463Z,54.00
2024-01-11T18:42:33.441Z,50.63
2024-01-11T18:45:01.147Z,53.90
2024-01-11T18:47:29.003Z,55.27
2024-01-11T18:49:56.200Z,51.27
2024-01-11T18:52:23.771Z,47.67
2024-01-11T18:54:54.647Z,46.97
2024-01-11T18:57:28.593Z,47.10
2024-01-11T19:00:21.998Z,47.53
2024-01-11T19:02:59.845Z,45.50
2024-01-11T19:06:46.287Z,45.87
2024-01-11T19:09:16.751Z,46.27
2024-01-11T19:11:45.549Z,51.27
2024-01-11T19:14:15.623Z,48.93
2024-01-11T19:16:44.941Z,49.60
2024-01-11T19:19:12.745Z,44.37
2024-01-11T19:21:39.814Z,49.57
2024-01-11T19:24:46.781Z,46.65
2024-01-11T19:27:14.306Z,50.38
2024-01-11T19:29:42.672Z,52.47
2024-01-11T19:32:09.939Z,53.55
2024-01-11T19:34:40.511Z,44.40
2024-01-11T19:37:12.730Z,46.55
2024-01-11T19:39:41.637Z,45.40
2024-01-11T19:42:13.986Z,43.47
2024-01-11T19:44:54.748Z,47.37
2024-01-11T19:47:23.400Z,38.28
2024-01-11T19:49:56.667Z,41.30
2024-01-11T19:52:27.764Z,42.75
2024-01-11T19:54:55.507Z,37.63
2024-01-11T19:57:24.534Z,46.28
2024-01-11T20:00:02.033Z,45.75
2024-01-11T20:02:38.242Z,45.77
2024-01-11T20:05:07.003Z,48.83
2024-01-11T20:07:35.355Z,47.67
2024-01-11T20:10:10.510Z,48.23
2024-01-11T20:12:43.582Z,44.87
2024-01-11T20:15:11.207Z,46.80
2024-01-11T20:17:42.306Z,55.73
2024-01-11T20:20:14.619Z,52.40
2024-01-11T20:22:41.841Z,51.63
2024-01-11T20:25:13.661Z,53.63
2024-01-11T20:27:46.833Z,56.28
2024-01-11T20:30:17.327Z,56.38
2024-01-11T20:32:44.754Z,48.28
2024-01-11T20:35:13.829Z,52.00
2024-01-11T20:37:41.849Z,48.60
2024-01-11T20:40:12.403Z,52.13
2024-01-11T20:42:40.578Z,45.07
2024-01-11T20:45:10.545Z,49.80
2024-01-11T20:47:40.468Z,46.78
2024-01-11T20:50:09.498Z,47.10
2024-01-11T20:52:37.138Z,42.73
2024-01-11T20:55:05.198Z,44.27
2024-01-11T20:57:33.705Z,41.90
2024-01-11T21:00:02.260Z,45.00
2024-01-11T21:02:30.585Z,45.15
2024-01-11T21:04:57.920Z,44.07
2024-01-11T21:07:25.936Z,45.63
2024-01-11T21:09:54.786Z,44.57
2024-01-11T21:12:21.989Z,52.10
2024-01-11T21:14:49.503Z,49.03
2024-01-11T21:17:16.639Z,53.53
2024-01-11T21:19:45.869Z,47.13
2024-01-11T21:22:13.958Z,46.63
2024-01-11T21:24:41.534Z,48.38
2024-01-11T21:27:08.581Z,44.33
2024-01-11T21:29:45.228Z,46.57
2024-01-11T21:32:37.918Z,44.78
2024-01-11T21:37:49.487Z,46.47
2024-01-11T21:40:21.161Z,46.00
2024-01-11T21:42:48.241Z,46.07
2024-01-11T21:45:15.622Z,48.00
2024-01-11T21:47:43.044Z,46.03
2024-01-11T21:50:11.476Z,48.75
2024-01-11T21:52:39.071Z,47.13
2024-01-11T21:55:08.300Z,44.03
2024-01-11T21:57:35.342Z,46.50
2024-01-11T22:00:02.820Z,43.27
2024-01-11T22:02:32.624Z,44.85
2024-01-11T22:05:05.578Z,44.70
2024-01-11T22:07:32.890Z,43.87
2024-01-11T22:10:02.603Z,46.00
2024-01-11T22:12:30.480Z,45.30
2024-01-11T22:14:57.760Z,44.37
2024-01-11T22:17:25.125Z,46.20
2024-01-11T22:19:52.580Z,44.70
2024-01-11T22:22:22.018Z,44.97
2024-01-11T22:24:52.984Z,48.97
2024-01-11T22:27:25.837Z,47.20
2024-01-11T22:29:53.925Z,48.27
2024-01-11T22:32:21.000Z,48.30
2024-01-11T22:34:48.699Z,45.03
2024-01-11T22:37:16.428Z,47.00
2024-01-11T22:39:44.563Z,55.23
2024-01-11T22:42:13.167Z,54.17
2024-01-11T22:44:40.649Z,49.17
2024-01-11T22:47:07.722Z,54.08
2024-01-11T22:49:43.322Z,51.55
2024-01-11T22:52:10.506Z,47.65
2024-01-11T22:54:41.287Z,46.10
2024-01-11T22:57:09.018Z,45.97
2024-01-11T22:59:42.260Z,43.77
2024-01-11T23:02:28.353Z,44.57
2024-01-11T23:04:59.950Z,44.83
2024-01-11T23:07:35.864Z,43.03
2024-01-11T23:10:08.089Z,46.38
2024-01-11T23:13:00.166Z,49.47
2024-01-11T23:15:34.732Z,43.67
2024-01-11T23:18:09.733Z,41.38
2024-01-11T23:20:51.339Z,45.95
2024-01-11T23:23:34.542Z,48.28
2024-01-11T23:26:02.099Z,44.57
2024-01-11T23:28:40.303Z,47.97
2024-01-11T23:31:23.372Z,47.85
2024-01-11T23:36:24.874Z,41.05
2024-01-11T23:38:52.928Z,44.80
2024-01-11T23:41:22.933Z,39.70
2024-01-11T23:43:56.116Z,37.35
2024-01-11T23:46:23.457Z,39.72
2024-01-11T23:48:50.501Z,35.78
2024-01-11T23:51:30.706Z,36.95
2024-01-11T23:53:59.400Z,39.13
2024-01-11T23:56:31.278Z,39.10
2024-01-11T23:59:00.939Z,38.35
